Time;durP1;ratioP1;P1;durP2;ratioP2;P2;SDS_P1;SDS_P2;PMS_P1;PMS_P2;Temp;Humidity;BMP_temperature;BMP_pressure;BME280_temperature;BME280_humidity;BME280_pressure;Samples;Min_cycle;Max_cycle;Signal;HPM_P1;HPM_P2
2023/09/11 00:01:00;;;;;;;7.68;5.50;;;537.60;2406.40;;;;;;5127162;28;20019;-81
2023/09/11 00:03:25;;;;;;;9.68;6.07;;;537.60;2406.40;;;;;;5124008;28;20045;-80
2023/09/11 00:05:51;;;;;;;9.45;6.63;;;512.90;2380.80;;;;;;5125141;28;21001;-79
2023/09/11 00:08:17;;;;;;;10.85;6.70;;;512.90;2380.80;;;;;;5125440;28;20032;-80
2023/09/11 00:10:43;;;;;;;9.57;6.30;;;512.60;2380.80;;;;;;5126573;28;20023;-80
2023/09/11 00:13:08;;;;;;;7.95;5.85;;;512.50;2380.80;;;;;;5127545;28;20016;-79
2023/09/11 00:15:35;;;;;;;7.60;5.45;;;512.30;2380.80;;;;;;5127382;28;20011;-80
2023/09/11 00:18:01;;;;;;;9.18;5.85;;;487.30;2380.80;;;;;;5121949;28;20016;-81
2023/09/11 00:20:27;;;;;;;9.88;5.72;;;487.00;2380.80;;;;;;5128696;28;20019;-82
2023/09/11 00:22:52;;;;;;;9.38;6.00;;;486.60;2380.80;;;;;;5126773;28;20016;-80
2023/09/11 00:25:18;;;;;;;7.82;5.63;;;486.40;2380.80;;;;;;5130898;27;20008;-83
2023/09/11 00:27:44;;;;;;;9.00;6.47;;;461.30;2380.80;;;;;;5127569;27;20039;-79
2023/09/11 00:30:10;;;;;;;9.82;6.53;;;461.30;2380.80;;;;;;5127975;28;20035;-80
2023/09/11 00:32:36;;;;;;;9.57;6.45;;;;;;;;;;5130402;28;20015;-81
2023/09/11 00:35:02;;;;;;;9.05;6.20;;;;;;;;;;5131497;27;20012;-80
2023/09/11 00:37:28;;;;;;;9.00;6.43;;;;;;;;;;5129533;27;20012;-81
2023/09/11 00:39:54;;;;;;;8.35;5.95;;;;;;;;;;5128518;28;20006;-80
2023/09/11 00:42:20;;;;;;;11.75;6.22;;;;;;;;;;5128091;27;20028;-80
2023/09/11 00:44:46;;;;;;;9.38;6.57;;;;;;;;;;5125789;27;20020;-79
2023/09/11 00:47:12;;;;;;;8.43;6.00;;;;;;;;;;5126646;28;20111;-80
2023/09/11 00:49:39;;;;;;;8.55;6.15;;;;;;;;;;5129643;27;20024;-81
2023/09/11 00:52:05;;;;;;;9.90;5.85;;;;;;;;;;5126849;27;20043;-81
2023/09/11 00:54:31;;;;;;;8.23;5.30;;;461.00;2380.80;;;;;;5134870;27;20078;-82
2023/09/11 00:56:58;;;;;;;7.88;5.18;;;436.10;2355.20;;;;;;5129448;27;20024;-80
2023/09/11 00:59:24;;;;;;;7.55;5.10;;;436.10;2355.20;;;;;;5133518;27;20020;-79
2023/09/11 01:01:50;;;;;;;7.53;5.20;;;461.20;2380.80;;;;;;5127611;28;20024;-80
2023/09/11 01:04:16;;;;;;;7.45;5.22;;;461.00;2380.80;;;;;;5138114;27;20015;-80
2023/09/11 01:06:42;;;;;;;7.05;5.15;;;461.10;2380.80;;;;;;5129684;27;20050;-81
2023/09/11 01:09:08;;;;;;;7.40;4.82;;;461.10;2380.80;;;;;;5130700;28;20007;-80
2023/09/11 01:11:34;;;;;;;7.00;5.03;;;461.30;2380.80;;;;;;5129960;28;20020;-81
2023/09/11 01:14:03;;;;;;;8.00;5.20;;;461.40;2380.80;;;;;;5129177;27;20034;-80
2023/09/11 01:16:45;;;;;;;6.90;4.80;;;461.50;2380.80;;;;;;5124707;27;20035;-82
2023/09/11 01:19:19;;;;;;;7.97;4.95;;;486.40;2380.80;;;;;;5126393;28;20030;-80
2023/09/11 01:22:02;;;;;;;8.53;5.13;;;486.40;2380.80;;;;;;5143453;27;20028;-79
2023/09/11 01:24:57;;;;;;;8.60;5.65;;;461.70;2022.40;;;;;;5131563;27;20016;-79
2023/09/11 01:27:31;;;;;;;10.43;5.88;;;461.60;2380.80;;;;;;5127466;27;20035;-79
2023/09/11 01:29:59;;;;;;;7.90;5.50;;;461.40;2304.00;;;;;;5131090;28;20033;-80
2023/09/11 01:32:25;;;;;;;7.85;5.50;;;461.10;2380.80;;;;;;5131508;27;20024;-79
2023/09/11 01:34:51;;;;;;;7.70;5.60;;;461.10;2380.80;;;;;;5131803;27;20023;-80
2023/09/11 01:37:17;;;;;;;8.40;5.90;;;460.80;2380.80;;;;;;5127162;28;20020;-80
2023/09/11 01:39:43;;;;;;;9.23;5.78;;;436.10;2355.20;;;;;;5132120;27;20065;-82
2023/09/11 01:42:13;;;;;;;7.20;5.40;;;436.10;2355.20;;;;;;5129141;28;20016;-80
2023/09/11 01:44:47;;;;;;;9.95;5.43;;;436.00;2355.20;;;;;;5128796;27;20055;-80
2023/09/11 01:47:17;;;;;;;7.25;5.10;;;435.90;2355.20;;;;;;5130130;27;20108;-80
2023/09/11 01:49:44;;;;;;;8.68;5.15;;;436.10;2355.20;;;;;;5132305;28;20004;-80
2023/09/11 01:52:11;;;;;;;7.07;5.10;;;460.90;2380.80;;;;;;5129543;28;20042;-78
2023/09/11 01:54:39;;;;;;;7.90;5.10;;;461.00;2380.80;;;;;;5129184;27;20040;-80
2023/09/11 01:57:06;;;;;;;6.85;4.88;;;461.10;2355.20;;;;;;5132183;27;20103;-80
2023/09/11 01:59:32;;;;;;;8.50;5.20;;;461.20;2380.80;;;;;;5127990;27;20036;-81
2023/09/11 02:01:58;;;;;;;9.93;5.50;;;461.30;2380.80;;;;;;5130618;27;20020;-79
2023/09/11 02:04:24;;;;;;;7.32;5.00;;;461.30;2380.80;;;;;;5129849;27;20033;-81
2023/09/11 02:06:50;;;;;;;8.35;5.35;;;461.30;2380.80;;;;;;5128514;27;20063;-80
2023/09/11 02:09:16;;;;;;;8.23;5.10;;;461.30;2380.80;;;;;;5128953;27;20026;-83
2023/09/11 02:11:41;;;;;;;6.50;4.82;;;461.40;2380.80;;;;;;5126102;28;20032;-81
2023/09/11 02:14:07;;;;;;;7.22;5.28;;;461.40;2380.80;;;;;;5132810;27;20059;-82
2023/09/11 02:16:33;;;;;;;7.82;5.40;;;461.40;2380.80;;;;;;5129927;28;20008;-80
2023/09/11 02:18:58;;;;;;;8.48;5.45;;;461.30;2380.80;;;;;;5125850;28;20046;-81
2023/09/11 02:21:24;;;;;;;7.07;5.20;;;461.20;2380.80;;;;;;5125123;28;20031;-79
2023/09/11 02:23:50;;;;;;;6.85;5.03;;;461.10;2380.80;;;;;;5128856;27;20028;-79
2023/09/11 02:26:15;;;;;;;6.85;4.97;;;461.10;2380.80;;;;;;5129775;27;20020;-79
2023/09/11 02:28:41;;;;;;;8.10;4.90;;;461.20;2380.80;;;;;;5128131;27;20019;-80
2023/09/11 02:31:07;;;;;;;7.63;5.35;;;461.10;2380.80;;;;;;5132058;27;20032;-80
2023/09/11 02:33:33;;;;;;;7.68;5.25;;;461.00;2227.20;;;;;;5132441;27;20012;-82
2023/09/11 02:36:02;;;;;;;9.00;5.80;;;436.00;2355.20;;;;;;5128459;28;20016;-79
2023/09/11 02:38:28;;;;;;;7.40;5.25;;;435.80;2355.20;;;;;;5128201;27;20023;-83
2023/09/11 02:40:54;;;;;;;8.13;5.45;;;435.60;2355.20;;;;;;5128772;28;20052;-81
2023/09/11 02:43:20;;;;;;;8.90;5.93;;;435.60;2355.20;;;;;;5126708;28;20047;-81
2023/09/11 02:45:46;;;;;;;9.07;5.50;;;;;;;;;;5131144;28;20029;-84
2023/09/11 02:48:12;;;;;;;7.75;5.35;;;436.10;2355.20;;;;;;5132751;27;20059;-81
2023/09/11 02:50:38;;;;;;;7.93;5.57;;;436.00;2355.20;;;;;;5138743;27;20016;-84
2023/09/11 02:53:08;;;;;;;8.52;5.70;;;436.00;2355.20;;;;;;5140359;27;20011;-81
2023/09/11 02:55:41;;;;;;;10.52;6.10;;;435.80;2355.20;;;;;;5142286;27;20039;-79
2023/09/11 02:58:06;;;;;;;10.43;6.47;;;435.80;2355.20;;;;;;5137188;27;20018;-82
2023/09/11 03:00:36;;;;;;;9.75;5.90;;;435.70;2355.20;;;;;;5137084;27;20043;-83
2023/09/11 03:03:05;;;;;;;9.57;6.43;;;435.60;2355.20;;;;;;5143870;27;20061;-83
2023/09/11 03:05:32;;;;;;;9.00;6.30;;;435.50;2355.20;;;;;;5142703;27;20027;-80
2023/09/11 03:07:59;;;;;;;8.35;5.60;;;435.60;2355.20;;;;;;5142222;27;20059;-80
2023/09/11 03:10:25;;;;;;;9.52;5.78;;;435.60;2355.20;;;;;;5142089;27;20018;-80
2023/09/11 03:12:51;;;;;;;9.00;6.13;;;435.70;2355.20;;;;;;5137992;28;20032;-80
2023/09/11 03:15:17;;;;;;;9.48;6.30;;;435.60;2355.20;;;;;;5141052;28;20038;-79
2023/09/11 03:17:43;;;;;;;9.68;6.28;;;435.60;2355.20;;;;;;5141386;28;20011;-81
2023/09/11 03:20:09;;;;;;;11.32;7.05;;;435.60;2355.20;;;;;;5142738;28;20744;-82
2023/09/11 03:22:35;;;;;;;10.13;7.10;;;435.50;2355.20;;;;;;5136430;28;20019;-77
2023/09/11 03:25:00;;;;;;;11.48;7.35;;;435.50;2355.20;;;;;;5145101;28;20086;-78
2023/09/11 03:27:26;;;;;;;11.88;7.43;;;435.50;2355.20;;;;;;5146755;28;20070;-78
2023/09/11 03:29:52;;;;;;;12.50;7.15;;;435.70;2355.20;;;;;;5136291;28;20071;-81
2023/09/11 03:32:18;;;;;;;12.38;7.20;;;435.70;2355.20;;;;;;5146239;27;20035;-78
2023/09/11 03:34:43;;;;;;;10.68;7.30;;;435.70;2355.20;;;;;;5141338;28;20031;-80
2023/09/11 03:37:09;;;;;;;15.73;8.40;;;435.80;2355.20;;;;;;5137703;27;20011;-80
2023/09/11 03:39:35;;;;;;;13.30;7.85;;;435.80;2355.20;;;;;;5144538;28;20011;-78
2023/09/11 03:42:00;;;;;;;13.77;7.70;;;435.80;2355.20;;;;;;5146518;27;20024;-80
2023/09/11 03:44:26;;;;;;;11.68;7.70;;;435.80;2355.20;;;;;;5139405;28;20063;-80
2023/09/11 03:46:52;;;;;;;12.05;7.80;;;435.80;2355.20;;;;;;5140167;28;20016;-81
2023/09/11 03:49:17;;;;;;;12.82;8.00;;;435.70;2355.20;;;;;;5143389;28;20020;-79
2023/09/11 03:51:43;;;;;;;14.63;8.40;;;435.80;2355.20;;;;;;5134799;28;20030;-79
2023/09/11 03:54:09;;;;;;;12.15;8.00;;;435.70;2355.20;;;;;;5142562;28;20016;-80
2023/09/11 03:56:35;;;;;;;11.23;8.13;;;435.80;2355.20;;;;;;5142446;28;20020;-82
2023/09/11 03:59:00;;;;;;;11.32;7.75;;;435.70;2355.20;;;;;;5141569;27;20084;-81
2023/09/11 04:01:26;;;;;;;12.85;8.07;;;435.70;2355.20;;;;;;5147316;27;20031;-80
2023/09/11 04:03:52;;;;;;;14.50;8.48;;;435.70;2355.20;;;;;;5142803;27;20027;-79
2023/09/11 04:06:19;;;;;;;13.57;8.20;;;435.80;2355.20;;;;;;5147543;27;20040;-82
2023/09/11 04:08:45;;;;;;;14.18;8.38;;;435.70;2355.20;;;;;;5144562;27;20044;-80
2023/09/11 04:11:10;;;;;;;14.20;8.60;;;435.70;2355.20;;;;;;5145125;27;20090;-80
2023/09/11 04:13:36;;;;;;;13.88;8.98;;;435.70;2355.20;;;;;;5143416;27;20024;-79
2023/09/11 04:16:02;;;;;;;11.20;7.63;;;435.60;2355.20;;;;;;5145850;27;20008;-79
2023/09/11 04:18:28;;;;;;;14.73;8.75;;;435.70;2355.20;;;;;;5146951;27;20031;-79
2023/09/11 04:21:04;;;;;;;13.60;8.23;;;435.60;2355.20;;;;;;5147366;27;20027;-79
2023/09/11 04:23:29;;;;;;;15.65;7.90;;;435.70;2355.20;;;;;;5143967;27;20075;-79
2023/09/11 04:25:55;;;;;;;14.02;8.60;;;435.70;2355.20;;;;;;5147983;27;20053;-80
2023/09/11 04:28:21;;;;;;;12.10;8.32;;;435.70;2355.20;;;;;;5144014;27;20108;-78
2023/09/11 04:30:47;;;;;;;16.30;9.63;;;435.70;2355.20;;;;;;5142061;27;20020;-82
2023/09/11 04:33:13;;;;;;;12.82;8.48;;;435.60;2355.20;;;;;;5142601;27;20031;-84
2023/09/11 04:35:38;;;;;;;13.23;8.00;;;435.70;2355.20;;;;;;5145510;27;20014;-80
2023/09/11 04:38:04;;;;;;;16.30;9.68;;;435.80;2355.20;;;;;;5148135;27;20111;-80
2023/09/11 04:40:30;;;;;;;14.98;9.35;;;435.80;2355.20;;;;;;5146521;27;20023;-80
2023/09/11 04:42:55;;;;;;;18.40;10.30;;;435.90;2355.20;;;;;;5143388;27;20031;-80
2023/09/11 04:45:21;;;;;;;15.07;9.80;;;460.80;2380.80;;;;;;5146731;27;20054;-80
2023/09/11 04:47:47;;;;;;;14.43;9.38;;;436.10;2355.20;;;;;;5143826;27;20038;-81
2023/09/11 04:50:12;;;;;;;12.43;8.23;;;436.10;2355.20;;;;;;5141591;27;20024;-79
2023/09/11 04:52:39;;;;;;;16.35;8.77;;;460.80;2380.80;;;;;;5142079;27;20023;-79
2023/09/11 04:55:06;;;;;;;15.65;9.45;;;460.90;2380.80;;;;;;5145286;27;20050;-80
2023/09/11 04:57:31;;;;;;;15.23;9.10;;;461.00;2380.80;;;;;;5146553;27;20015;-79
2023/09/11 04:59:59;;;;;;;14.45;9.27;;;461.10;2380.80;;;;;;5147836;27;20007;-79
2023/09/11 05:02:25;;;;;;;18.35;9.40;;;461.20;2380.80;;;;;;5139155;27;20019;-79
2023/09/11 05:04:51;;;;;;;16.98;8.25;;;461.40;2380.80;;;;;;5143830;27;20095;-80
2023/09/11 05:07:16;;;;;;;14.63;9.20;;;461.30;2380.80;;;;;;5128125;28;20020;-80
2023/09/11 05:09:42;;;;;;;16.73;9.25;;;461.30;2380.80;;;;;;5124339;28;20004;-81
2023/09/11 05:12:08;;;;;;;15.93;9.10;;;461.30;2380.80;;;;;;5139153;27;20031;-80
2023/09/11 05:14:33;;;;;;;14.23;8.57;;;461.30;2380.80;;;;;;5135140;27;20016;-80
2023/09/11 05:16:59;;;;;;;14.85;9.60;;;461.40;2380.80;;;;;;5144980;27;20054;-82
2023/09/11 05:19:25;;;;;;;13.63;9.13;;;461.60;2380.80;;;;;;5141997;27;20034;-83
2023/09/11 05:21:51;;;;;;;16.83;9.88;;;461.60;2380.80;;;;;;5143345;27;20011;-79
2023/09/11 05:24:16;;;;;;;17.65;9.73;;;461.70;2380.80;;;;;;5143700;27;20019;-79
2023/09/11 05:26:42;;;;;;;15.32;9.48;;;461.50;2380.80;;;;;;5145447;27;20023;-80
2023/09/11 05:29:08;;;;;;;18.17;9.90;;;461.60;2099.20;;;;;;5142925;27;20049;-81
2023/09/11 05:31:33;;;;;;;15.73;9.00;;;486.70;2380.80;;;;;;5134499;27;20050;-80
2023/09/11 05:33:59;;;;;;;14.57;9.50;;;486.60;2380.80;;;;;;5133552;28;20015;-79
2023/09/11 05:36:25;;;;;;;18.38;9.20;;;486.70;2380.80;;;;;;5133495;27;20053;-79
2023/09/11 05:38:51;;;;;;;14.63;9.63;;;486.90;2380.80;;;;;;5133066;28;20046;-81
2023/09/11 05:41:20;;;;;;;17.63;10.07;;;487.00;2380.80;;;;;;5129572;28;20039;-83
2023/09/11 05:43:45;;;;;;;20.10;10.60;;;487.00;2380.80;;;;;;5132006;27;20040;-81
2023/09/11 05:46:11;;;;;;;16.73;10.38;;;487.10;2380.80;;;;;;5131968;27;20023;-79
2023/09/11 05:48:37;;;;;;;16.40;10.10;;;487.20;2380.80;;;;;;5135329;27;20028;-83
2023/09/11 05:51:04;;;;;;;17.00;10.50;;;487.30;2380.80;;;;;;5128288;28;20038;-80
2023/09/11 05:53:32;;;;;;;14.95;10.13;;;512.10;2380.80;;;;;;5130280;28;20071;-80
2023/09/11 05:55:58;;;;;;;17.08;10.70;;;512.20;2380.80;;;;;;5127416;28;20039;-80
2023/09/11 05:58:24;;;;;;;18.27;10.60;;;512.10;2380.80;;;;;;5125419;28;20020;-79
2023/09/11 06:00:51;;;;;;;17.05;10.13;;;512.40;2380.80;;;;;;5124797;28;20091;-80
2023/09/11 06:03:17;;;;;;;15.85;10.25;;;512.70;2380.80;;;;;;5126216;28;20012;-80
2023/09/11 06:05:43;;;;;;;14.38;9.70;;;512.70;2380.80;;;;;;5126590;28;20004;-78
2023/09/11 06:08:09;;;;;;;16.88;9.63;;;512.80;2380.80;;;;;;5126466;28;20038;-82
2023/09/11 06:10:35;;;;;;;15.10;9.32;;;537.80;2406.40;;;;;;5125708;28;20020;-78
2023/09/11 06:13:01;;;;;;;15.15;9.77;;;537.80;2406.40;;;;;;5126184;28;20027;-78
2023/09/11 06:15:27;;;;;;;14.65;9.85;;;538.00;2406.40;;;;;;5129848;28;20039;-80
2023/09/11 06:17:54;;;;;;;11.48;7.90;;;563.70;2432.00;;;;;;5130620;28;20027;-84
2023/09/11 06:20:21;;;;;;;11.68;8.20;;;;;;;;;;5124838;28;20015;-82
2023/09/11 06:22:51;;;;;;;14.80;8.43;;;;;;;;;;5130947;28;20037;-84
2023/09/11 06:25:17;;;;;;;12.32;8.45;;;;;;;;;;5126865;28;20035;-82
2023/09/11 06:27:43;;;;;;;13.35;8.40;;;845.30;1536.00;;;;;;5120207;27;20051;-84
2023/09/11 06:30:10;;;;;;;10.65;7.63;;;870.60;1484.80;;;;;;5130499;27;20007;-80
2023/09/11 06:32:36;;;;;;;13.23;8.10;;;;;;;;;;5118593;27;20077;-80
2023/09/11 06:35:04;;;;;;;11.77;7.70;;;;;;;;;;5127921;28;20012;-81
2023/09/11 06:37:30;;;;;;;12.32;7.53;;;896.40;1331.20;;;;;;5132476;28;20069;-81
2023/09/11 06:39:56;;;;;;;12.70;7.95;;;;;;;;;;5113342;28;20027;-81
2023/09/11 06:42:24;;;;;;;9.60;7.03;;;947.20;1254.40;;;;;;5123386;28;20023;-79
2023/09/11 06:44:51;;;;;;;9.30;7.07;;;947.80;1203.20;;;;;;5122725;28;20054;-81
2023/09/11 06:47:18;;;;;;;9.25;6.60;;;922.20;1228.80;;;;;;5127843;28;20038;-80
2023/09/11 06:49:45;;;;;;;12.40;7.32;;;948.10;1152.00;;;;;;5125492;28;20047;-79
2023/09/11 06:52:11;;;;;;;8.27;6.55;;;947.60;1152.00;;;;;;5123438;28;20039;-79
2023/09/11 06:54:39;;;;;;;8.93;6.55;;;947.30;1152.00;;;;;;5122682;28;20008;-80
2023/09/11 06:57:06;;;;;;;11.02;7.00;;;947.90;1126.40;;;;;;5117788;28;20039;-79
2023/09/11 06:59:32;;;;;;;9.02;6.53;;;973.10;1126.40;;;;;;5126800;28;20071;-82
2023/09/11 07:01:58;;;;;;;9.95;6.45;;;973.00;1126.40;;;;;;5128766;28;20012;-81
2023/09/11 07:04:25;;;;;;;10.73;6.65;;;973.30;1075.20;;;;;;5125608;28;20022;-81
2023/09/11 07:06:51;;;;;;;8.30;6.20;;;948.00;1100.80;;;;;;5122996;28;20079;-80
2023/09/11 07:09:17;;;;;;;8.13;6.22;;;998.70;1075.20;;;;;;5118751;28;20008;-82
2023/09/11 07:11:42;;;;;;;9.60;6.90;;;998.40;1126.40;;;;;;5115538;28;20047;-80
2023/09/11 07:14:12;;;;;;;9.20;6.78;;;948.00;1100.80;;;;;;5120430;28;20079;-82
2023/09/11 07:16:39;;;;;;;7.90;5.88;;;922.20;1177.60;;;;;;5126418;28;20049;-80
2023/09/11 07:19:04;;;;;;;8.10;5.82;;;896.50;1203.20;;;;;;5123473;28;20016;-78
2023/09/11 07:21:30;;;;;;;9.73;6.18;;;845.30;1305.60;;;;;;5128284;28;20039;-78
2023/09/11 07:23:56;;;;;;;8.05;5.63;;;819.70;1382.40;;;;;;5119326;28;20024;-78
2023/09/11 07:26:22;;;;;;;8.35;6.07;;;794.40;1433.60;;;;;;5118672;28;20026;-79
2023/09/11 07:28:55;;;;;;;8.05;5.63;;;794.20;1408.00;;;;;;5125868;28;20031;-79
2023/09/11 07:31:21;;;;;;;8.05;5.72;;;768.30;1459.20;;;;;;5122613;28;20036;-79
2023/09/11 07:33:47;;;;;;;8.68;6.00;;;742.40;1561.60;;;;;;5125372;28;20028;-80
2023/09/11 07:36:13;;;;;;;7.95;5.45;;;717.40;1587.20;;;;;;5129680;28;20373;-80
2023/09/11 07:38:44;;;;;;;8.40;5.70;;;717.60;1587.20;;;;;;5128890;28;20020;-79
2023/09/11 07:41:11;;;;;;;8.25;5.55;;;742.40;1587.20;;;;;;5129625;27;20012;-78
2023/09/11 07:43:37;;;;;;;8.43;5.63;;;742.40;1612.80;;;;;;5131893;28;20024;-79
2023/09/11 07:46:03;;;;;;;7.28;5.57;;;717.30;1612.80;;;;;;5134692;28;20024;-80
2023/09/11 07:48:31;;;;;;;8.27;5.68;;;717.10;1638.40;;;;;;5131640;28;20031;-79
2023/09/11 07:50:58;;;;;;;6.95;5.22;;;717.70;1587.20;;;;;;5130170;27;20046;-79
2023/09/11 07:53:23;;;;;;;6.47;4.90;;;742.80;1587.20;;;;;;5131886;27;20042;-78
2023/09/11 07:55:49;;;;;;;6.80;5.05;;;742.80;1587.20;;;;;;5131956;27;20020;-79
2023/09/11 07:58:18;;;;;;;9.50;5.50;;;;;;;;;;5127601;27;20036;-78
2023/09/11 08:00:44;;;;;;;7.28;5.30;;;;;;;;;;5132147;28;20034;-79
2023/09/11 08:03:10;;;;;;;8.48;5.40;;;;;;;;;;5130031;27;20016;-79
2023/09/11 08:05:37;;;;;;;6.13;5.10;;;768.00;1561.60;;;;;;5127240;28;20032;-79
2023/09/11 08:08:03;;;;;;;7.38;5.38;;;768.20;1536.00;;;;;;5128692;28;20043;-80
2023/09/11 08:10:30;;;;;;;6.93;5.28;;;768.10;1536.00;;;;;;5128822;28;20017;-79
2023/09/11 08:12:56;;;;;;;8.50;5.25;;;;;;;;;;5128099;28;20019;-81
2023/09/11 08:15:24;;;;;;;8.85;5.40;;;;;;;;;;5132512;28;20008;-79
2023/09/11 08:17:50;;;;;;;8.45;5.00;;;;;;;;;;5130051;28;20166;-81
2023/09/11 08:20:16;;;;;;;7.05;4.72;;;;;;;;;;5133487;28;20016;-81
2023/09/11 08:22:42;;;;;;;8.70;5.45;;;;;;;;;;5131260;28;20039;-79
2023/09/11 08:25:13;;;;;;;8.10;4.88;;;;;;;;;;5131077;28;20054;-81
2023/09/11 08:27:39;;;;;;;5.93;4.45;;;794.10;1459.20;;;;;;5132431;28;20057;-80
2023/09/11 08:30:06;;;;;;;6.55;4.60;;;;;;;;;;5134749;28;20016;-79
2023/09/11 08:32:35;;;;;;;7.00;4.25;;;;;;;;;;5134695;28;20005;-81
2023/09/11 08:35:04;;;;;;;6.63;4.50;;;;;;;;;;5134533;28;20023;-81
2023/09/11 08:37:30;;;;;;;6.93;4.50;;;;;;;;;;5131283;28;20044;-81
2023/09/11 08:39:56;;;;;;;8.27;4.10;;;;;;;;;;5130010;28;20016;-80
2023/09/11 08:42:26;;;;;;;8.65;4.32;;;794.40;1408.00;;;;;;5133586;28;20061;-80
2023/09/11 08:44:51;;;;;;;5.68;4.18;;;794.30;1408.00;;;;;;5133613;28;20047;-82
2023/09/11 08:47:20;;;;;;;6.22;4.20;;;;;;;;;;5132375;28;20065;-79
2023/09/11 08:49:52;;;;;;;5.65;4.20;;;819.80;1382.40;;;;;;5129632;28;20034;-82
2023/09/11 08:52:18;;;;;;;4.78;3.55;;;;;;;;;;5132621;28;20016;-81
2023/09/11 08:54:46;;;;;;;6.95;4.10;;;;;;;;;;5134568;28;20089;-80
2023/09/11 08:57:15;;;;;;;6.38;4.32;;;845.10;1382.40;;;;;;5129332;28;20097;-80
2023/09/11 08:59:44;;;;;;;6.65;4.38;;;844.90;1382.40;;;;;;5137928;28;20035;-80
2023/09/11 09:02:13;;;;;;;6.88;3.85;;;820.00;1331.20;;;;;;5132491;28;20040;-78
2023/09/11 09:04:40;;;;;;;6.47;4.15;;;820.00;1356.80;;;;;;5129454;28;20047;-78
2023/09/11 09:07:07;;;;;;;6.75;5.07;;;;;;;;;;5126256;28;20012;-78
2023/09/11 09:09:34;;;;;;;5.32;4.38;;;;;;;;;;5126689;28;20030;-78
2023/09/11 09:12:00;;;;;;;6.80;4.50;;;;;;;;;;5130463;28;20020;-81
2023/09/11 09:14:28;;;;;;;7.38;4.80;;;870.60;1356.80;;;;;;5129812;28;20058;-79
2023/09/11 09:16:54;;;;;;;7.38;4.60;;;845.50;1356.80;;;;;;5126964;28;20008;-79
2023/09/11 09:19:20;;;;;;;7.45;4.35;;;845.10;1356.80;;;;;;5126481;28;20023;-79
2023/09/11 09:22:06;;;;;;;5.32;4.25;;;844.90;1382.40;;;;;;5122809;28;20016;-81
2023/09/11 09:24:34;;;;;;;6.03;3.90;;;820.10;1356.80;;;;;;5123409;28;20036;-82
2023/09/11 09:27:04;;;;;;;5.47;3.95;;;845.00;1382.40;;;;;;5129975;28;20027;-81
2023/09/11 09:29:36;;;;;;;6.25;4.40;;;844.90;1356.80;;;;;;5130219;28;20042;-82
2023/09/11 09:32:03;;;;;;;6.00;3.90;;;845.00;1331.20;;;;;;5124878;28;20028;-82
2023/09/11 09:34:32;;;;;;;6.13;3.70;;;819.90;1305.60;;;;;;5125947;28;20067;-83
2023/09/11 09:36:58;;;;;;;6.25;3.83;;;819.90;1305.60;;;;;;5130950;28;20073;-82
2023/09/11 09:39:28;;;;;;;7.45;5.20;;;820.10;1280.00;;;;;;5125685;28;20020;-81
2023/09/11 09:42:00;;;;;;;5.45;4.20;;;844.90;1331.20;;;;;;5128390;28;20019;-81
2023/09/11 09:44:29;;;;;;;7.65;4.90;;;870.60;1254.40;;;;;;5128399;28;20036;-82
2023/09/11 09:46:54;;;;;;;7.22;4.78;;;870.90;1228.80;;;;;;5126465;28;20020;-82
2023/09/11 09:49:25;;;;;;;4.88;3.88;;;870.70;1228.80;;;;;;5124955;28;20044;-82
2023/09/11 09:51:52;;;;;;;6.90;3.70;;;870.70;1203.20;;;;;;5127971;28;20047;-82
2023/09/11 09:54:19;;;;;;;6.32;3.47;;;870.60;1203.20;;;;;;5127873;27;20042;-82
2023/09/11 09:56:47;;;;;;;6.07;4.15;;;870.60;1177.60;;;;;;5124138;28;20024;-82
2023/09/11 09:59:23;;;;;;;5.07;3.35;;;;;;;;;;5124950;28;20020;-80
2023/09/11 10:01:50;;;;;;;4.90;3.25;;;;;;;;;;5128482;28;20026;-83
2023/09/11 10:04:16;;;;;;;5.07;3.03;;;;;;;;;;5126350;28;20016;-82
2023/09/11 10:06:42;;;;;;;6.68;3.30;;;;;;;;;;5123969;28;20024;-81
2023/09/11 10:09:10;;;;;;;5.90;3.22;;;;;;;;;;5126643;28;20023;-83
2023/09/11 10:11:36;;;;;;;4.20;3.25;;;;;;;;;;5125499;28;20032;-83
2023/09/11 10:14:05;;;;;;;5.10;3.65;;;896.10;1152.00;;;;;;5125156;28;20028;-82
2023/09/11 10:16:33;;;;;;;4.32;3.67;;;870.70;1152.00;;;;;;5126746;28;20028;-83
2023/09/11 10:19:00;;;;;;;3.92;3.47;;;870.60;1203.20;;;;;;5132250;28;20020;-81
2023/09/11 10:21:27;;;;;;;7.10;3.60;;;870.80;1152.00;;;;;;5125067;28;20019;-83
2023/09/11 10:23:55;;;;;;;6.50;3.58;;;871.00;1152.00;;;;;;5129421;28;20018;-83
2023/09/11 10:26:25;;;;;;;4.72;3.30;;;871.30;1126.40;;;;;;5124076;28;20043;-82
2023/09/11 10:28:52;;;;;;;4.95;3.33;;;;;;;;;;5125287;28;20080;-80
2023/09/11 10:31:25;;;;;;;6.80;4.60;;;896.40;1100.80;;;;;;5126191;28;20050;-82
2023/09/11 10:33:55;;;;;;;6.85;4.30;;;896.80;1100.80;;;;;;5146457;27;20091;-82
2023/09/11 10:36:30;;;;;;;6.43;3.88;;;;;;;;;;5125155;28;20115;-83
2023/09/11 10:38:59;;;;;;;6.43;3.47;;;;;;;;;;5126563;28;20043;-82
2023/09/11 10:41:25;;;;;;;4.53;3.50;;;;;;;;;;5133149;28;20057;-81
2023/09/11 10:43:51;;;;;;;6.07;3.50;;;921.60;1075.20;;;;;;5122091;28;20071;-84
2023/09/11 10:46:39;;;;;;;5.30;3.50;;;896.70;1049.60;;;;;;5126157;28;20080;-82
2023/09/11 10:49:23;;;;;;;4.20;3.15;;;896.00;1075.20;;;;;;5127566;28;20035;-84
2023/09/11 10:51:49;;;;;;;;;;;870.80;1075.20;;;;;;5126335;28;20047;-85
2023/09/11 10:54:16;;;;;;;4.30;3.30;;;870.50;1075.20;;;;;;5122153;28;19915;-83
2023/09/11 10:56:42;;;;;;;6.25;3.47;;;870.50;1100.80;;;;;;5125990;28;20030;-81
2023/09/11 10:59:08;;;;;;;5.00;3.40;;;871.20;1075.20;;;;;;5127072;28;20040;-82
2023/09/11 11:01:35;;;;;;;4.55;3.40;;;896.10;1049.60;;;;;;5128037;28;20004;-82
2023/09/11 11:04:05;;;;;;;5.38;3.42;;;896.80;1049.60;;;;;;5127187;28;20031;-81
2023/09/11 11:06:31;;;;;;;4.82;3.60;;;921.70;1100.80;;;;;;5129867;28;20064;-83
2023/09/11 11:08:57;;;;;;;3.88;3.00;;;896.20;1049.60;;;;;;5126979;28;20027;-82
2023/09/11 11:11:30;;;;;;;3.92;3.25;;;896.30;1024.00;;;;;;5128910;28;20012;-84
2023/09/11 11:14:17;;;;;;;4.70;3.50;;;896.20;1075.20;;;;;;5129645;28;20053;-82
2023/09/11 11:17:08;;;;;;;5.57;3.25;;;871.20;1075.20;;;;;;5126707;28;20016;-82
2023/09/11 11:19:50;;;;;;;6.35;3.63;;;896.80;1100.80;;;;;;5124962;28;20057;-83
2023/09/11 11:22:34;;;;;;;4.95;3.22;;;921.80;1049.60;;;;;;5124739;28;20016;-83
2023/09/11 11:25:03;;;;;;;5.50;3.83;;;922.40;1024.00;;;;;;5128194;28;20019;-83
2023/09/11 11:27:29;;;;;;;5.22;3.25;;;921.90;1049.60;;;;;;5124472;28;20040;-82
2023/09/11 11:29:56;;;;;;;5.00;3.45;;;921.70;1024.00;;;;;;5122083;28;20094;-83
2023/09/11 11:32:22;;;;;;;4.30;3.28;;;896.40;1024.00;;;;;;5125889;28;20087;-84
2023/09/11 11:34:54;;;;;;;4.63;3.22;;;870.80;1100.80;;;;;;5124129;28;20043;-84
2023/09/11 11:37:21;;;;;;;4.65;3.38;;;871.00;1126.40;;;;;;5127195;28;20024;-82
2023/09/11 11:39:47;;;;;;;5.13;3.22;;;896.30;1100.80;;;;;;5125361;28;20026;-82
2023/09/11 11:42:14;;;;;;;4.68;3.50;;;896.40;1100.80;;;;;;5126120;28;20023;-83
2023/09/11 11:44:40;;;;;;;5.28;3.45;;;896.10;1100.80;;;;;;5131177;28;20038;-82
2023/09/11 11:47:07;;;;;;;4.22;3.38;;;871.10;1075.20;;;;;;5127586;28;20028;-82
2023/09/11 11:49:35;;;;;;;5.30;3.30;;;896.20;1049.60;;;;;;5124180;28;20022;-82
2023/09/11 11:52:03;;;;;;;4.50;3.35;;;871.30;1075.20;;;;;;5125845;28;20035;-82
2023/09/11 11:54:29;;;;;;;5.07;3.45;;;896.60;1075.20;;;;;;5124243;28;20110;-83
2023/09/11 11:57:11;;;;;;;5.22;3.70;;;896.80;1049.60;;;;;;5126029;28;20036;-83
2023/09/11 11:59:39;;;;;;;4.97;3.38;;;921.90;1075.20;;;;;;5132373;28;20010;-82
2023/09/11 12:02:17;;;;;;;6.45;3.60;;;922.00;1049.60;;;;;;5126888;28;20024;-82
2023/09/11 12:04:43;;;;;;;6.03;3.60;;;922.20;1049.60;;;;;;5123908;28;20038;-82
2023/09/11 12:07:09;;;;;;;5.07;3.55;;;896.40;1075.20;;;;;;5131297;28;20024;-82
2023/09/11 12:09:39;;;;;;;6.40;3.53;;;896.20;1100.80;;;;;;5125006;28;20046;-81
2023/09/11 12:12:08;;;;;;;4.32;3.28;;;896.40;1075.20;;;;;;5127079;28;20047;-80
2023/09/11 12:14:36;;;;;;;5.47;3.35;;;896.10;1100.80;;;;;;5132599;28;20058;-83
2023/09/11 12:17:03;;;;;;;5.65;3.80;;;896.20;1126.40;;;;;;5134048;28;20015;-84
2023/09/11 12:19:29;;;;;;;5.55;3.67;;;871.20;1075.20;;;;;;5131452;28;20016;-81
2023/09/11 12:21:59;;;;;;;4.88;3.60;;;870.80;1100.80;;;;;;5135198;27;20022;-81
2023/09/11 12:24:25;;;;;;;5.38;3.50;;;870.70;1126.40;;;;;;5138229;27;20019;-82
2023/09/11 12:26:51;;;;;;;6.82;3.28;;;871.00;1100.80;;;;;;5143499;27;20433;-80
2023/09/11 12:29:19;;;;;;;4.13;3.20;;;871.20;1126.40;;;;;;5131167;27;20034;-79
2023/09/11 12:31:46;;;;;;;4.38;3.08;;;896.70;1100.80;;;;;;5130810;27;20032;-81
2023/09/11 12:34:12;;;;;;;4.20;3.40;;;921.60;1100.80;;;;;;5128641;27;20034;-81